Aeroporto :
LOGIN :

Iscrizione | Disclaimer

   EN    FR    IT 

 










Sommario :    VFR   VFR Marginale   IFR   IFR Intensivo   IFR Molto Intensivo
Visibilità : 
Base nubi : 
>= 8 km
>= 3000ft
5 / 8 km
1000 / 3000 ft
1500m / 5 km
500 / 1000 ft
800 / 1500m
200 / 500 ft
< 800m
< 200 ft
Simboli :   Temporali  Nebbia  Neve Forte  Precipitazioni Forti  Vento > 20 kt
SIGMETs :   Varie  Temporali  Ghiacco  Turbolenza  Onda orograficha  Ceneri Vulcaniche







- Altitudine del aeroporto : 788 ft
- Codice IATA : DCM
- Carte del aeroporto


LFCK - Castres-Mazamet

ULTIMO METAR :
  • 230200Z AUTO 11005KT CAVOK 15/11 Q1022

METARs OBSOLETI :
  • 230130Z AUTO 08005KT CAVOK 16/11 Q1023
  • 230100Z AUTO 12003KT CAVOK 16/11 Q1023
  • 230030Z AUTO 08003KT CAVOK 16/11 Q1023
  • 230000Z AUTO 12004KT CAVOK 17/12 Q1023
  • 222330Z AUTO 10004KT CAVOK 16/12 Q1023

TAF TAF LFCK
Valido dal 22 a 18 ore il 23 a 03 ore UTC


221700Z 2218/2303 VRB02KT CAVOK
Nessun NOTAM noto per questo aeroporto.



MetMap, La meteo Aeronautica in un colpo d'occhio ! - Copyright ORBIFLY Dicembre 2007 - Disclaimer

ORBIFLY MET'MAP TEAM :

Programmazione e sviluppo : Alexandra Zaïnal
Concezione e sviluppo : Baudouin d'Aumeries
Co-Programmazione e sviluppo : Marc-Olivier Méhu
Supporto tecnico e logistico : Manuel Goepfert
Aiuto per la traduzione : Arnaldo La Scala

Contatto : metmap@orbifly.com




FONTI E CREDITI :

   NOAA